Terminal Aerodrome Forecast
Issued by NWS

Home | Current Version | Previous Version | Graphics & Text | Print | Product List | Glossary On
Versions: 1 2 3 4 5 6 7 8 9 10 11 12 13 14 15 16 17 18 19 20 21 22 23 24 25 26 27 28 29 30 31
930
FTUS43 KLOT 292106 AAB
TAFDPA
TAF AMD
KDPA 292106Z 2921/3018 02007KT 4SM -TSRA BR SCT025CB OVC080
      TEMPO 2921/2924 VRB12G18KT 2SM TSRA BR BKN025CB
     FM300100 05009KT P6SM VCSH BKN040
     FM300700 04006KT 4SM BR SCT015 BKN040
     FM301500 07010KT P6SM BKN045=

USA.gov is the U.S. government's official web portal to all federal, state and local government web resources and services.